Time;durP1;ratioP1;P1;durP2;ratioP2;P2;SDS_P1;SDS_P2;PMS_P1;PMS_P2;Temp;Humidity;BMP_temperature;BMP_pressure;BME280_temperature;BME280_humidity;BME280_pressure;Samples;Min_cycle;Max_cycle;Signal;HPM_P1;HPM_P2
2021/09/15 00:00:41;;;;;;;5.75;4.82;;;21.30;74.90;;;;;;5002424;28;20031;-68
2021/09/15 00:03:07;;;;;;;5.97;4.75;;;21.40;75.10;;;;;;5001283;28;20779;-68
2021/09/15 00:05:32;;;;;;;6.68;4.93;;;21.30;75.10;;;;;;4999654;28;20037;-68
2021/09/15 00:07:58;;;;;;;7.85;4.75;;;21.30;75.10;;;;;;5001281;28;20049;-67
2021/09/15 00:10:23;;;;;;;6.60;5.20;;;21.30;75.10;;;;;;4999267;28;20042;-67
2021/09/15 00:12:49;;;;;;;7.22;4.80;;;21.30;75.10;;;;;;5000983;28;20097;-68
2021/09/15 00:15:15;;;;;;;4.93;4.53;;;21.30;75.30;;;;;;5003748;28;20053;-67
2021/09/15 00:17:40;;;;;;;5.20;4.70;;;21.30;75.30;;;;;;5000540;28;20140;-67
2021/09/15 00:20:08;;;;;;;5.07;4.55;;;21.30;75.40;;;;;;5000702;28;20030;-67
2021/09/15 00:22:33;;;;;;;5.30;4.80;;;21.30;75.50;;;;;;5003008;28;20041;-67
2021/09/15 00:24:59;;;;;;;4.93;4.43;;;21.20;75.40;;;;;;4999651;28;20037;-67
2021/09/15 00:27:25;;;;;;;6.03;5.05;;;21.20;75.70;;;;;;5001512;28;20420;-67
2021/09/15 00:29:50;;;;;;;5.65;4.85;;;21.20;75.60;;;;;;5002107;28;20551;-67
2021/09/15 00:32:16;;;;;;;6.18;4.47;;;21.20;75.60;;;;;;4998649;28;20038;-67
2021/09/15 00:34:41;;;;;;;6.50;4.40;;;21.20;75.80;;;;;;5000620;28;20045;-67
2021/09/15 00:37:07;;;;;;;5.47;4.97;;;21.20;75.90;;;;;;4998956;28;20593;-69
2021/09/15 00:39:33;;;;;;;5.13;4.63;;;21.20;76.00;;;;;;5000446;28;20042;-68
2021/09/15 00:41:58;;;;;;;7.57;4.93;;;21.10;75.90;;;;;;4998232;28;20030;-68
2021/09/15 00:44:24;;;;;;;5.50;5.00;;;21.20;76.10;;;;;;4998759;28;20044;-67
2021/09/15 00:46:51;;;;;;;5.43;4.78;;;21.10;76.10;;;;;;4995453;28;20042;-69
2021/09/15 00:49:17;;;;;;;7.38;4.80;;;21.10;76.20;;;;;;4998545;28;20038;-67
2021/09/15 00:51:43;;;;;;;5.43;4.85;;;21.10;76.30;;;;;;4999719;28;20030;-68
2021/09/15 00:54:10;;;;;;;5.30;4.80;;;21.10;76.30;;;;;;4998697;28;20042;-68
2021/09/15 00:56:37;;;;;;;6.28;5.25;;;21.10;76.50;;;;;;4998779;28;20026;-68
2021/09/15 00:59:03;;;;;;;5.95;5.18;;;21.10;76.50;;;;;;4999239;28;20030;-67
2021/09/15 01:01:28;;;;;;;5.30;4.80;;;21.10;76.60;;;;;;4999672;28;20039;-68
2021/09/15 01:03:54;;;;;;;5.40;4.90;;;21.00;76.60;;;;;;4999574;28;20035;-67
2021/09/15 01:06:20;;;;;;;5.45;4.78;;;21.00;76.60;;;;;;5000280;28;20492;-69
2021/09/15 01:08:46;;;;;;;5.28;4.60;;;21.00;76.60;;;;;;5000247;28;20065;-67
2021/09/15 01:11:13;;;;;;;6.00;4.97;;;21.00;76.70;;;;;;5000500;28;20065;-68
2021/09/15 01:13:40;;;;;;;5.63;5.15;;;21.00;76.90;;;;;;5000844;28;20033;-68
2021/09/15 01:16:06;;;;;;;6.03;4.72;;;21.00;76.90;;;;;;5000061;28;20042;-67
2021/09/15 01:18:31;;;;;;;5.50;5.00;;;21.00;76.80;;;;;;5013263;28;20096;-67
2021/09/15 01:20:57;;;;;;;5.80;4.82;;;20.90;77.00;;;;;;4999927;28;20524;-68
2021/09/15 01:23:23;;;;;;;4.90;4.50;;;20.90;77.00;;;;;;4998303;28;20034;-67
2021/09/15 01:25:50;;;;;;;5.00;4.60;;;21.00;76.90;;;;;;4999950;28;20041;-67
2021/09/15 01:28:16;;;;;;;5.63;5.13;;;20.90;76.80;;;;;;4998250;28;20505;-67
2021/09/15 01:30:42;;;;;;;5.55;4.97;;;21.00;77.00;;;;;;4999956;28;20065;-67
2021/09/15 01:33:15;;;;;;;5.53;5.03;;;21.00;77.00;;;;;;4995898;28;20076;-67
2021/09/15 01:35:42;;;;;;;5.53;5.03;;;21.00;77.30;;;;;;4999298;28;20065;-68
2021/09/15 01:38:09;;;;;;;7.13;5.50;;;21.00;76.80;;;;;;5000743;28;20146;-68
2021/09/15 01:40:35;;;;;;;6.38;5.78;;;21.00;76.90;;;;;;4998500;28;20034;-67
2021/09/15 01:43:01;;;;;;;6.28;5.72;;;21.00;76.80;;;;;;5001441;28;20068;-67
2021/09/15 01:45:28;;;;;;;6.25;5.65;;;21.00;76.80;;;;;;4998710;28;20117;-69
2021/09/15 01:47:53;;;;;;;6.22;5.63;;;21.00;76.80;;;;;;4999016;28;20107;-67
2021/09/15 01:50:19;;;;;;;7.53;5.75;;;21.00;76.80;;;;;;4998898;28;20172;-67
2021/09/15 01:52:45;;;;;;;7.25;6.32;;;21.00;76.90;;;;;;4998820;28;20096;-67
2021/09/15 01:55:28;;;;;;;6.82;5.88;;;21.00;77.00;;;;;;4998694;28;20088;-67
2021/09/15 01:57:54;;;;;;;6.88;6.28;;;21.00;77.20;;;;;;5000295;28;20072;-67
2021/09/15 02:00:20;;;;;;;6.43;5.32;;;21.00;77.60;;;;;;4998089;28;20516;-68
2021/09/15 02:02:48;;;;;;;6.28;5.68;;;21.00;76.70;;;;;;4997755;28;20041;-67
2021/09/15 02:05:14;;;;;;;6.65;6.03;;;21.00;76.80;;;;;;4998684;28;20532;-68
2021/09/15 02:07:40;;;;;;;7.70;6.72;;;20.90;76.70;;;;;;4998879;28;20075;-67
2021/09/15 02:10:07;;;;;;;6.50;5.88;;;20.90;76.70;;;;;;4999071;28;20041;-67
2021/09/15 02:12:33;;;;;;;6.50;5.43;;;20.90;77.70;;;;;;4999420;28;20042;-67
2021/09/15 02:14:58;;;;;;;6.43;5.82;;;20.90;76.60;;;;;;4998061;28;20340;-67
2021/09/15 02:17:24;;;;;;;6.90;6.20;;;20.90;76.70;;;;;;5001384;28;20061;-67
2021/09/15 02:19:50;;;;;;;7.18;6.47;;;20.90;76.80;;;;;;4997576;28;20042;-68
2021/09/15 02:22:16;;;;;;;6.80;6.10;;;20.80;76.80;;;;;;5000035;28;20138;-67
2021/09/15 02:24:41;;;;;;;6.70;6.00;;;20.80;76.80;;;;;;4996720;28;20568;-67
2021/09/15 02:27:07;;;;;;;6.65;6.07;;;20.70;76.80;;;;;;4999064;28;20030;-68
2021/09/15 02:29:33;;;;;;;6.65;6.00;;;20.70;76.80;;;;;;5000210;28;20058;-67
2021/09/15 02:31:58;;;;;;;6.55;5.95;;;20.70;76.90;;;;;;5015466;28;20042;-67
2021/09/15 02:34:24;;;;;;;6.72;6.13;;;20.80;77.10;;;;;;4996967;28;20084;-68
2021/09/15 02:36:49;;;;;;;7.18;6.30;;;20.70;77.20;;;;;;4999401;28;20026;-67
2021/09/15 02:39:15;;;;;;;6.65;6.05;;;20.70;77.20;;;;;;5012925;28;20489;-67
2021/09/15 02:41:41;;;;;;;7.82;6.47;;;20.70;77.30;;;;;;4998682;28;20032;-68
2021/09/15 02:44:06;;;;;;;6.38;5.78;;;20.70;77.40;;;;;;4999360;28;20057;-67
2021/09/15 02:46:32;;;;;;;7.65;6.30;;;20.70;77.30;;;;;;4999856;28;20033;-68
2021/09/15 02:48:59;;;;;;;6.90;6.20;;;20.70;78.20;;;;;;4997560;28;20544;-67
2021/09/15 02:51:24;;;;;;;7.15;6.45;;;20.70;77.50;;;;;;4997603;28;20034;-67
2021/09/15 02:53:50;;;;;;;6.80;6.15;;;20.70;77.40;;;;;;4999884;28;20033;-67
2021/09/15 02:56:16;;;;;;;6.57;5.97;;;20.70;77.50;;;;;;4998095;28;20039;-67
2021/09/15 02:58:41;;;;;;;6.82;6.15;;;20.70;77.50;;;;;;4999348;28;20042;-68
2021/09/15 03:01:07;;;;;;;7.20;6.40;;;20.70;77.70;;;;;;4998690;28;20737;-68
2021/09/15 03:03:32;;;;;;;6.68;6.05;;;20.70;77.50;;;;;;4998731;28;20555;-67
2021/09/15 03:05:58;;;;;;;7.63;6.45;;;20.70;77.50;;;;;;4997084;28;20088;-67
2021/09/15 03:08:24;;;;;;;7.63;6.50;;;20.70;77.40;;;;;;4997222;28;20029;-67
2021/09/15 03:10:49;;;;;;;7.13;6.40;;;20.70;77.50;;;;;;5000650;28;20076;-67
2021/09/15 03:13:15;;;;;;;7.78;6.97;;;20.70;78.20;;;;;;5003163;28;20516;-69
2021/09/15 03:15:41;;;;;;;7.50;6.70;;;20.70;77.40;;;;;;5005763;28;20042;-67
2021/09/15 03:18:07;;;;;;;7.78;6.55;;;20.80;77.50;;;;;;5003771;28;20030;-68
2021/09/15 03:20:32;;;;;;;6.95;6.25;;;20.80;77.50;;;;;;5003948;28;20042;-66
2021/09/15 03:22:58;;;;;;;7.65;6.60;;;20.80;77.30;;;;;;5002712;28;20045;-68
2021/09/15 03:25:24;;;;;;;7.75;6.43;;;20.70;77.20;;;;;;5007308;28;20041;-68
2021/09/15 03:27:49;;;;;;;8.00;6.45;;;20.70;77.10;;;;;;5004499;28;20042;-68
2021/09/15 03:30:15;;;;;;;7.75;6.38;;;20.70;77.20;;;;;;5008638;28;20436;-68
2021/09/15 03:32:41;;;;;;;8.05;6.78;;;20.80;77.20;;;;;;5003755;28;20029;-67
2021/09/15 03:35:07;;;;;;;7.45;6.70;;;20.80;77.20;;;;;;5005051;28;20054;-67
2021/09/15 03:37:32;;;;;;;6.63;6.03;;;20.80;77.30;;;;;;5002824;28;20075;-67
2021/09/15 03:39:58;;;;;;;6.72;6.03;;;20.80;77.00;;;;;;5005793;28;20044;-67
2021/09/15 03:42:24;;;;;;;8.48;6.88;;;20.80;76.90;;;;;;5002765;28;20030;-68
2021/09/15 03:44:49;;;;;;;7.80;7.10;;;20.80;77.20;;;;;;5000285;28;20030;-68
2021/09/15 03:47:15;;;;;;;6.80;6.20;;;20.80;77.30;;;;;;5002751;28;20634;-68
2021/09/15 03:49:41;;;;;;;7.60;6.85;;;20.70;77.10;;;;;;5004165;28;20034;-68
2021/09/15 03:52:06;;;;;;;7.68;6.60;;;20.80;77.30;;;;;;5001162;28;20054;-67
2021/09/15 03:54:32;;;;;;;8.25;7.45;;;20.70;77.30;;;;;;5005602;28;20038;-67
2021/09/15 03:56:58;;;;;;;7.90;7.05;;;20.80;77.60;;;;;;5002524;28;20066;-66
2021/09/15 03:59:24;;;;;;;7.93;7.13;;;20.70;77.40;;;;;;5007308;28;20052;-68
2021/09/15 04:01:49;;;;;;;8.13;6.85;;;20.70;77.70;;;;;;5002772;28;20377;-67
2021/09/15 04:04:15;;;;;;;7.95;7.13;;;20.70;78.60;;;;;;5002322;28;22166;-67
2021/09/15 04:06:40;;;;;;;9.38;7.88;;;20.70;77.70;;;;;;5003641;28;20045;-67
2021/09/15 04:09:07;;;;;;;7.93;7.13;;;20.70;77.60;;;;;;5004583;28;20347;-66
2021/09/15 04:11:33;;;;;;;9.40;7.45;;;20.70;77.50;;;;;;5002711;28;20426;-68
2021/09/15 04:13:59;;;;;;;8.50;7.60;;;20.70;77.70;;;;;;5002954;28;20121;-67
2021/09/15 04:16:24;;;;;;;8.20;7.40;;;20.70;77.80;;;;;;5005305;28;20451;-67
2021/09/15 04:18:50;;;;;;;8.13;7.32;;;20.70;77.80;;;;;;5000778;28;20504;-67
2021/09/15 04:21:15;;;;;;;9.40;8.18;;;20.70;77.80;;;;;;5003033;28;20030;-67
2021/09/15 04:31:54;;;;;;;9.40;8.35;;;20.70;78.10;;;;;;5000655;28;20084;-67
2021/09/15 04:34:19;;;;;;;9.30;8.00;;;20.70;78.10;;;;;;5001555;28;20042;-67
2021/09/15 04:36:45;;;;;;;9.02;8.15;;;20.70;78.10;;;;;;5001370;28;20030;-67
2021/09/15 04:39:10;;;;;;;8.55;7.75;;;20.70;78.30;;;;;;4999503;28;20070;-68
2021/09/15 04:41:36;;;;;;;8.57;7.72;;;20.70;78.50;;;;;;5001677;28;20116;-67
2021/09/15 04:44:03;;;;;;;9.77;8.25;;;20.70;78.60;;;;;;5000897;28;20030;-68
2021/09/15 04:46:28;;;;;;;8.93;8.02;;;20.70;78.50;;;;;;5001188;28;20104;-68
2021/09/15 04:48:54;;;;;;;9.60;8.65;;;20.70;78.70;;;;;;5001928;28;20089;-66
2021/09/15 04:51:20;;;;;;;9.75;8.20;;;20.70;78.70;;;;;;4996997;28;20038;-67
2021/09/15 04:53:46;;;;;;;10.07;8.40;;;20.70;78.70;;;;;;4999516;28;20034;-68
2021/09/15 04:56:11;;;;;;;11.50;8.35;;;20.70;78.70;;;;;;5000606;28;20042;-68
2021/09/15 04:58:37;;;;;;;10.27;8.48;;;20.70;78.70;;;;;;5000157;28;20044;-67
2021/09/15 05:01:03;;;;;;;10.45;8.48;;;20.70;78.80;;;;;;5001307;28;20072;-67
2021/09/15 05:03:28;;;;;;;10.20;7.93;;;20.70;79.00;;;;;;5000854;28;20050;-67
2021/09/15 05:05:54;;;;;;;9.15;8.13;;;20.70;79.10;;;;;;5001100;28;20034;-68
2021/09/15 05:08:19;;;;;;;8.70;7.88;;;20.70;79.10;;;;;;5001612;28;20041;-67
2021/09/15 05:10:45;;;;;;;10.13;8.60;;;20.80;79.20;;;;;;5002597;28;20038;-67
2021/09/15 05:13:11;;;;;;;11.27;8.82;;;20.70;79.20;;;;;;5000534;28;20113;-67
2021/09/15 05:15:36;;;;;;;9.30;8.40;;;20.70;79.10;;;;;;5001485;28;20043;-67
2021/09/15 05:18:02;;;;;;;11.00;9.00;;;20.70;79.30;;;;;;5001813;28;20432;-67
2021/09/15 05:20:28;;;;;;;11.70;9.15;;;20.70;79.40;;;;;;5001412;28;20092;-67
2021/09/15 05:22:54;;;;;;;9.65;8.60;;;20.70;79.40;;;;;;4999875;28;20065;-68
2021/09/15 05:25:22;;;;;;;9.40;8.48;;;20.60;79.60;;;;;;5004763;28;20034;-67
2021/09/15 05:27:47;;;;;;;9.82;8.63;;;20.60;79.70;;;;;;5014302;28;20026;-67
2021/09/15 05:30:14;;;;;;;11.15;8.57;;;20.60;79.80;;;;;;5001528;28;20038;-67
2021/09/15 05:32:40;;;;;;;9.10;7.88;;;20.60;79.90;;;;;;4999945;28;20559;-68
2021/09/15 05:35:09;;;;;;;9.25;8.38;;;20.60;79.90;;;;;;5000964;28;20046;-67
2021/09/15 05:37:35;;;;;;;9.32;8.35;;;20.60;80.00;;;;;;5000289;28;20061;-67
2021/09/15 05:40:01;;;;;;;9.18;8.27;;;20.60;80.10;;;;;;5002450;28;20061;-67
2021/09/15 05:42:27;;;;;;;8.85;8.00;;;20.60;80.10;;;;;;4999866;28;20246;-67
2021/09/15 05:44:53;;;;;;;10.13;8.85;;;20.60;80.10;;;;;;5003607;28;20042;-67
2021/09/15 05:47:19;;;;;;;9.15;8.15;;;20.60;80.20;;;;;;5000301;28;20636;-67
2021/09/15 05:49:44;;;;;;;8.50;7.65;;;20.60;80.30;;;;;;5001056;28;20029;-66
2021/09/15 05:52:10;;;;;;;9.57;8.68;;;20.70;81.20;;;;;;5015597;28;20409;-67
2021/09/15 05:54:35;;;;;;;9.95;8.15;;;20.70;80.10;;;;;;5000347;28;20030;-66
2021/09/15 05:57:01;;;;;;;10.77;8.30;;;20.70;80.10;;;;;;5003827;28;20042;-67
2021/09/15 05:59:27;;;;;;;10.98;8.80;;;20.70;80.10;;;;;;5001400;28;20441;-67
2021/09/15 06:01:52;;;;;;;10.95;8.45;;;20.80;80.10;;;;;;5000107;28;20025;-66
2021/09/15 06:04:18;;;;;;;9.55;8.38;;;20.80;80.30;;;;;;5000406;28;22065;-66
2021/09/15 06:06:44;;;;;;;9.50;8.30;;;20.80;80.30;;;;;;4999728;28;20137;-66
2021/09/15 06:09:09;;;;;;;9.25;8.35;;;20.80;80.30;;;;;;5000612;28;20035;-67
2021/09/15 06:11:35;;;;;;;10.05;8.60;;;20.90;80.20;;;;;;5000032;28;20080;-67
2021/09/15 06:14:01;;;;;;;10.10;8.60;;;20.90;80.30;;;;;;5000344;28;20082;-67
2021/09/15 06:16:26;;;;;;;9.93;8.07;;;20.90;80.30;;;;;;4998497;28;20058;-67
2021/09/15 06:18:52;;;;;;;9.60;8.18;;;20.90;80.30;;;;;;4999145;28;20037;-66
2021/09/15 06:21:18;;;;;;;9.07;7.97;;;20.90;80.30;;;;;;4999689;28;20086;-67
2021/09/15 06:23:45;;;;;;;14.18;9.38;;;20.90;80.30;;;;;;4998340;28;20104;-68
2021/09/15 06:26:11;;;;;;;10.82;8.70;;;20.90;80.50;;;;;;4999962;28;20060;-67
2021/09/15 06:28:37;;;;;;;9.68;8.63;;;20.90;80.50;;;;;;5000074;28;20042;-67
2021/09/15 06:31:04;;;;;;;10.02;8.38;;;20.90;80.40;;;;;;5000056;28;20044;-67
2021/09/15 06:33:32;;;;;;;10.63;8.43;;;20.90;80.40;;;;;;4996663;28;20056;-67
2021/09/15 06:35:58;;;;;;;11.27;8.35;;;20.90;80.50;;;;;;5001245;28;20130;-68
2021/09/15 06:38:24;;;;;;;9.25;8.35;;;20.90;80.40;;;;;;5000923;28;20440;-67
2021/09/15 06:40:49;;;;;;;10.18;8.27;;;20.90;80.40;;;;;;5001648;28;20100;-66
2021/09/15 06:43:15;;;;;;;10.82;8.60;;;20.90;80.40;;;;;;4999434;28;20034;-67
2021/09/15 06:45:41;;;;;;;10.15;8.30;;;20.90;80.40;;;;;;4999078;28;20084;-67
2021/09/15 06:48:06;;;;;;;9.70;8.70;;;20.90;80.50;;;;;;5000280;28;20065;-67
2021/09/15 06:50:32;;;;;;;9.85;8.60;;;20.90;80.50;;;;;;4999518;28;20405;-67
2021/09/15 06:52:58;;;;;;;10.00;9.00;;;20.90;80.50;;;;;;5000519;28;20034;-67
2021/09/15 06:55:24;;;;;;;9.85;8.45;;;20.90;80.70;;;;;;5000290;28;20038;-67
2021/09/15 06:57:50;;;;;;;10.45;8.77;;;20.90;80.70;;;;;;4998758;28;20042;-67
2021/09/15 07:00:18;;;;;;;10.48;8.95;;;20.90;80.80;;;;;;4998750;28;20064;-67
2021/09/15 07:02:44;;;;;;;10.13;9.05;;;21.00;80.80;;;;;;4996068;28;20040;-67
2021/09/15 07:05:10;;;;;;;9.65;8.52;;;21.00;81.00;;;;;;4999659;28;20033;-67
2021/09/15 07:07:36;;;;;;;10.30;8.30;;;21.00;80.90;;;;;;4999001;28;20030;-66
2021/09/15 07:10:04;;;;;;;9.93;8.93;;;21.00;80.90;;;;;;5000352;28;20092;-67
2021/09/15 07:12:29;;;;;;;10.68;9.57;;;21.00;81.00;;;;;;4997763;28;20030;-67
2021/09/15 07:14:55;;;;;;;10.35;9.35;;;21.10;81.10;;;;;;5000060;28;20085;-67
2021/09/15 07:17:20;;;;;;;11.20;9.10;;;21.10;81.20;;;;;;5000012;28;20381;-67
2021/09/15 07:19:46;;;;;;;9.18;8.23;;;21.10;81.00;;;;;;4999907;28;20034;-67
2021/09/15 07:22:12;;;;;;;9.57;8.57;;;21.10;80.80;;;;;;4999112;28;20100;-66
2021/09/15 07:24:37;;;;;;;9.63;8.52;;;21.10;80.80;;;;;;4999527;28;20062;-67
2021/09/15 07:27:03;;;;;;;13.30;9.52;;;21.10;80.90;;;;;;5000792;28;20068;-67
2021/09/15 07:29:29;;;;;;;11.77;8.93;;;21.10;81.00;;;;;;4998712;28;20497;-67
2021/09/15 07:31:54;;;;;;;11.52;8.75;;;21.20;81.00;;;;;;4997361;28;20042;-67
2021/09/15 07:34:20;;;;;;;11.13;8.00;;;21.20;81.00;;;;;;5016477;28;20374;-67
2021/09/15 07:36:46;;;;;;;12.23;8.75;;;21.20;81.00;;;;;;4998665;28;20045;-67
2021/09/15 07:39:11;;;;;;;13.65;8.93;;;21.20;80.80;;;;;;4997626;28;20065;-67
2021/09/15 07:41:37;;;;;;;12.20;9.25;;;21.20;80.90;;;;;;4996927;28;20038;-67
2021/09/15 07:44:03;;;;;;;12.88;8.52;;;21.30;80.90;;;;;;5000171;28;20044;-67
2021/09/15 07:46:29;;;;;;;12.88;8.55;;;21.30;80.90;;;;;;4998933;28;20041;-67
2021/09/15 07:48:54;;;;;;;9.23;8.02;;;21.30;80.90;;;;;;4999146;28;20046;-67
2021/09/15 07:51:21;;;;;;;10.02;7.57;;;21.30;80.90;;;;;;4998730;28;20033;-68
2021/09/15 07:53:47;;;;;;;7.93;7.15;;;21.30;80.90;;;;;;4999171;28;20035;-67
2021/09/15 07:56:13;;;;;;;8.25;7.45;;;21.30;80.90;;;;;;5000223;28;20030;-67
2021/09/15 07:58:39;;;;;;;7.53;6.82;;;21.30;80.80;;;;;;5002240;28;20133;-67
2021/09/15 08:01:04;;;;;;;7.53;6.75;;;21.30;81.00;;;;;;5003900;28;20120;-67
2021/09/15 08:03:30;;;;;;;7.78;6.93;;;21.30;80.80;;;;;;5001793;28;20124;-66
2021/09/15 08:05:57;;;;;;;7.30;6.60;;;21.30;80.70;;;;;;5002677;28;20045;-67
2021/09/15 08:08:23;;;;;;;11.23;7.38;;;21.30;80.70;;;;;;5001853;28;20037;-67
2021/09/15 08:10:50;;;;;;;8.48;6.97;;;21.30;80.50;;;;;;5001257;28;20038;-67
2021/09/15 08:13:16;;;;;;;9.07;7.05;;;21.30;80.60;;;;;;5002380;28;20080;-67
2021/09/15 08:15:41;;;;;;;8.13;7.30;;;21.30;80.70;;;;;;5001918;28;20121;-68
2021/09/15 08:18:07;;;;;;;10.32;7.78;;;21.30;80.60;;;;;;5002107;28;20509;-67
2021/09/15 08:20:33;;;;;;;8.23;7.43;;;21.30;80.70;;;;;;5001994;28;20111;-67
2021/09/15 08:22:59;;;;;;;7.80;7.00;;;21.30;80.80;;;;;;5002204;28;20033;-67
2021/09/15 08:25:24;;;;;;;8.10;6.70;;;21.30;81.00;;;;;;5002551;28;20050;-67
2021/09/15 08:27:50;;;;;;;8.95;7.20;;;21.30;80.90;;;;;;5006310;28;20134;-67
2021/09/15 08:30:16;;;;;;;8.93;7.15;;;21.40;81.00;;;;;;5002212;28;20055;-68
2021/09/15 08:32:41;;;;;;;9.63;6.88;;;21.40;80.90;;;;;;5001757;28;20042;-67
2021/09/15 08:35:08;;;;;;;9.30;7.20;;;21.40;80.70;;;;;;5002830;28;20046;-65
2021/09/15 08:37:35;;;;;;;7.50;6.70;;;21.40;80.80;;;;;;5002367;28;20038;-67
2021/09/15 08:40:02;;;;;;;7.28;6.57;;;21.40;80.60;;;;;;5002257;28;20033;-67
2021/09/15 08:42:27;;;;;;;7.25;6.55;;;21.50;80.80;;;;;;5001285;28;20078;-67
2021/09/15 08:44:53;;;;;;;8.55;7.18;;;21.50;80.80;;;;;;5015337;28;20034;-67
2021/09/15 08:47:21;;;;;;;7.75;6.60;;;21.50;80.80;;;;;;5002325;28;20057;-67
2021/09/15 08:49:47;;;;;;;7.40;6.63;;;21.50;80.70;;;;;;5001905;28;20030;-67
2021/09/15 08:52:13;;;;;;;7.85;7.10;;;21.60;80.60;;;;;;5002061;28;20162;-67
2021/09/15 08:54:38;;;;;;;7.05;6.40;;;21.60;80.60;;;;;;5001671;28;20117;-67
2021/09/15 08:57:04;;;;;;;10.60;7.20;;;21.60;80.60;;;;;;5000516;28;20034;-68
2021/09/15 08:59:30;;;;;;;7.95;7.25;;;21.60;80.60;;;;;;4999408;28;20402;-67
2021/09/15 09:02:26;;;;;;;8.40;7.10;;;21.60;80.80;;;;;;4997605;28;20027;-67
2021/09/15 09:05:00;;;;;;;7.20;6.45;;;21.70;81.40;;;;;;4986873;28;20113;-69
2021/09/15 09:07:29;;;;;;;7.18;6.45;;;21.80;80.80;;;;;;5016232;28;20033;-68
2021/09/15 09:09:56;;;;;;;8.13;6.88;;;21.80;80.70;;;;;;5001102;28;20505;-67
2021/09/15 09:12:25;;;;;;;8.65;7.05;;;21.90;80.60;;;;;;5000644;28;20030;-67
2021/09/15 09:14:52;;;;;;;8.10;6.22;;;22.00;80.50;;;;;;5001213;28;20124;-67
2021/09/15 09:17:33;;;;;;;7.35;6.65;;;22.10;80.30;;;;;;5016328;28;20030;-67
2021/09/15 09:20:35;;;;;;;6.38;5.78;;;22.10;79.80;;;;;;5001280;28;20041;-67
2021/09/15 09:23:08;;;;;;;9.05;6.30;;;22.30;79.70;;;;;;4978950;28;20026;-67
2021/09/15 09:25:46;;;;;;;7.13;5.63;;;22.40;79.70;;;;;;5002571;28;20045;-67
2021/09/15 09:28:17;;;;;;;8.65;5.50;;;22.40;79.50;;;;;;5000948;28;20452;-67
2021/09/15 09:30:43;;;;;;;7.43;5.68;;;22.60;79.30;;;;;;5000352;28;20045;-68
2021/09/15 09:33:09;;;;;;;7.03;5.72;;;22.60;79.10;;;;;;5000285;28;20038;-68
2021/09/15 09:35:50;;;;;;;6.78;5.43;;;22.70;79.80;;;;;;5000780;28;20048;-67
2021/09/15 09:38:26;;;;;;;8.30;5.38;;;22.70;78.70;;;;;;5000692;28;20081;-69
2021/09/15 09:41:04;;;;;;;8.48;5.32;;;22.80;78.20;;;;;;5000633;28;20034;-68
2021/09/15 09:43:33;;;;;;;8.40;5.05;;;22.80;78.00;;;;;;5000715;28;20575;-68
2021/09/15 09:45:59;;;;;;;8.02;5.22;;;22.90;78.00;;;;;;5000600;28;20455;-70
2021/09/15 09:48:33;;;;;;;8.10;4.90;;;23.00;78.20;;;;;;4999093;28;20117;-68
2021/09/15 09:51:00;;;;;;;5.53;4.22;;;23.00;78.10;;;;;;5000888;28;20037;-70
2021/09/15 09:53:27;;;;;;;5.47;4.43;;;23.10;77.70;;;;;;5000814;28;20505;-70
2021/09/15 09:55:57;;;;;;;7.82;4.93;;;23.10;77.20;;;;;;4999622;28;20052;-71
2021/09/15 09:58:24;;;;;;;5.00;4.60;;;23.20;76.90;;;;;;5000097;28;20725;-70
2021/09/15 10:00:56;;;;;;;7.82;5.40;;;23.20;76.30;;;;;;4999690;28;20064;-69
2021/09/15 10:03:21;;;;;;;7.05;5.43;;;23.20;76.10;;;;;;5012195;28;20128;-68
2021/09/15 10:05:49;;;;;;;6.65;5.15;;;23.20;76.10;;;;;;4999666;28;20117;-68
2021/09/15 10:08:17;;;;;;;6.78;5.55;;;23.30;76.60;;;;;;5001470;28;20077;-68
2021/09/15 10:10:49;;;;;;;6.60;4.97;;;23.20;76.10;;;;;;5000197;28;24602;-67
2021/09/15 10:13:16;;;;;;;7.90;6.47;;;23.30;76.60;;;;;;4999961;28;20425;-67
2021/09/15 10:15:48;;;;;;;9.95;5.95;;;23.30;76.50;;;;;;5000763;28;20484;-71
2021/09/15 10:18:16;;;;;;;7.70;5.97;;;23.30;76.50;;;;;;5000604;28;20034;-70
2021/09/15 10:20:49;;;;;;;6.45;5.82;;;23.40;76.50;;;;;;4999278;28;20044;-67
2021/09/15 10:23:38;;;;;;;6.45;5.85;;;23.40;76.00;;;;;;4999780;28;20027;-67
2021/09/15 10:26:28;;;;;;;7.05;5.75;;;23.40;74.50;;;;;;5000438;28;20034;-68
2021/09/15 10:29:32;;;;;;;6.90;5.53;;;23.40;75.40;;;;;;4998486;28;20027;-67
2021/09/15 10:32:12;;;;;;;7.40;5.63;;;23.40;75.40;;;;;;4980605;28;20031;-68
2021/09/15 10:34:40;;;;;;;11.07;6.35;;;23.50;75.00;;;;;;4979830;28;20045;-67
2021/09/15 10:37:26;;;;;;;6.18;5.55;;;23.50;75.30;;;;;;4980966;28;20236;-68
2021/09/15 10:40:00;;;;;;;7.75;5.50;;;23.50;74.40;;;;;;4979499;28;20852;-67
2021/09/15 10:42:48;;;;;;;8.40;5.28;;;23.50;74.30;;;;;;4974636;28;20034;-68
2021/09/15 10:45:14;;;;;;;8.32;5.75;;;23.50;74.00;;;;;;4978712;28;20122;-67
2021/09/15 10:47:46;;;;;;;7.07;5.80;;;23.50;74.30;;;;;;4978773;28;20034;-67
2021/09/15 10:50:33;;;;;;;8.75;5.18;;;23.50;73.90;;;;;;4996300;28;20164;-69
2021/09/15 10:53:07;;;;;;;5.60;4.55;;;23.50;73.50;;;;;;5002419;28;20038;-67
2021/09/15 10:55:40;;;;;;;5.82;5.22;;;23.60;73.60;;;;;;5001367;28;20030;-68
2021/09/15 10:58:13;;;;;;;7.30;5.10;;;23.60;73.20;;;;;;4999857;28;20034;-68
2021/09/15 11:00:58;;;;;;;5.32;4.75;;;23.60;73.10;;;;;;5000691;28;20504;-68
2021/09/15 11:03:30;;;;;;;6.97;4.68;;;23.60;72.60;;;;;;4999921;28;20426;-65
2021/09/15 11:05:57;;;;;;;6.78;4.88;;;23.60;73.00;;;;;;5000965;28;20086;-67
2021/09/15 11:08:41;;;;;;;5.05;4.55;;;23.60;73.00;;;;;;5000590;28;20029;-67
2021/09/15 11:11:20;;;;;;;5.55;4.60;;;23.70;72.70;;;;;;5003365;28;20038;-67
2021/09/15 11:13:58;;;;;;;7.43;4.82;;;23.70;72.80;;;;;;5000298;28;20058;-70
2021/09/15 11:16:24;;;;;;;6.28;4.25;;;23.80;72.90;;;;;;4999982;28;20125;-70
2021/09/15 11:19:10;;;;;;;7.03;4.35;;;23.80;72.40;;;;;;5001659;28;20117;-70
2021/09/15 11:21:39;;;;;;;6.60;4.50;;;23.80;72.20;;;;;;5001466;28;20504;-70
2021/09/15 11:24:16;;;;;;;6.38;4.20;;;23.80;72.10;;;;;;4999665;28;20049;-67
2021/09/15 11:26:49;;;;;;;6.50;3.80;;;23.80;72.00;;;;;;4999490;28;23369;-67
2021/09/15 11:29:35;;;;;;;4.90;3.80;;;23.80;71.40;;;;;;4999532;28;20037;-68
2021/09/15 11:32:00;;;;;;;7.60;3.88;;;23.90;70.70;;;;;;5003285;28;20136;-67
2021/09/15 11:34:26;;;;;;;5.38;3.38;;;23.90;71.10;;;;;;5005521;28;20145;-67
2021/09/15 11:36:52;;;;;;;4.45;3.53;;;23.90;70.80;;;;;;5006570;28;20052;-67
2021/09/15 11:39:23;;;;;;;5.85;3.60;;;24.00;70.70;;;;;;5002802;28;20426;-67
2021/09/15 11:41:49;;;;;;;5.57;3.70;;;24.00;70.30;;;;;;5004048;28;20409;-67
2021/09/15 11:44:15;;;;;;;7.43;3.97;;;24.00;70.60;;;;;;5005517;28;20022;-67
2021/09/15 11:46:41;;;;;;;4.03;3.22;;;24.00;70.40;;;;;;5004759;28;20037;-68
2021/09/15 11:49:06;;;;;;;4.30;3.67;;;24.00;70.40;;;;;;5002594;28;20461;-68
2021/09/15 11:51:36;;;;;;;5.32;3.47;;;24.00;70.00;;;;;;5004474;28;20034;-67
2021/09/15 11:54:15;;;;;;;6.07;3.47;;;24.00;70.00;;;;;;5001244;28;20109;-67
2021/09/15 11:56:51;;;;;;;5.20;3.70;;;24.00;70.20;;;;;;5001880;28;20038;-67
2021/09/15 11:59:22;;;;;;;5.38;3.58;;;24.00;70.40;;;;;;5002121;28;20038;-67
2021/09/15 12:01:48;;;;;;;4.20;3.53;;;24.00;70.70;;;;;;5002265;28;20512;-67
2021/09/15 12:04:19;;;;;;;5.10;3.65;;;24.00;70.20;;;;;;5002511;28;20034;-68
2021/09/15 12:06:45;;;;;;;5.70;3.75;;;24.00;69.90;;;;;;5003595;28;20394;-68
2021/09/15 12:09:11;;;;;;;6.15;3.90;;;24.00;70.40;;;;;;5002854;28;20034;-70
2021/09/15 12:11:44;;;;;;;5.47;3.80;;;23.90;70.30;;;;;;5002508;28;20049;-67
2021/09/15 12:14:10;;;;;;;4.18;3.15;;;23.90;70.00;;;;;;5002823;28;20034;-69
2021/09/15 12:16:38;;;;;;;5.78;3.53;;;23.90;70.40;;;;;;5005169;28;20100;-70
2021/09/15 12:19:13;;;;;;;4.80;3.45;;;23.90;70.40;;;;;;5005297;28;20137;-68
2021/09/15 12:21:43;;;;;;;5.60;3.53;;;23.90;70.80;;;;;;5005098;28;20445;-68
2021/09/15 12:24:09;;;;;;;7.78;3.25;;;24.00;70.90;;;;;;5003956;28;20025;-67
2021/09/15 12:26:35;;;;;;;6.10;3.53;;;24.00;70.70;;;;;;5006491;28;20033;-68
2021/09/15 12:29:06;;;;;;;5.63;3.10;;;24.00;70.90;;;;;;5004669;28;20092;-67
2021/09/15 12:31:44;;;;;;;3.50;2.95;;;24.10;70.00;;;;;;5003300;28;20026;-67
2021/09/15 12:34:10;;;;;;;4.88;3.08;;;24.20;69.60;;;;;;5002195;28;20092;-68
2021/09/15 12:36:36;;;;;;;5.10;2.75;;;24.20;69.70;;;;;;5003533;28;20132;-67
2021/09/15 12:39:11;;;;;;;5.20;3.05;;;24.30;69.50;;;;;;5002958;28;20125;-68
2021/09/15 12:41:58;;;;;;;4.57;3.20;;;24.40;69.80;;;;;;5003061;28;20048;-68
2021/09/15 12:44:35;;;;;;;5.45;3.53;;;24.50;69.20;;;;;;5001415;28;20117;-68
2021/09/15 12:47:06;;;;;;;5.53;3.40;;;24.50;69.70;;;;;;5002937;28;20119;-68
2021/09/15 12:49:34;;;;;;;7.85;3.30;;;24.60;69.50;;;;;;5003978;28;20064;-68
2021/09/15 12:52:15;;;;;;;5.75;3.30;;;24.70;69.40;;;;;;5001295;28;20030;-68
2021/09/15 12:54:56;;;;;;;4.85;3.70;;;24.70;68.70;;;;;;5001208;28;20034;-67
2021/09/15 12:57:32;;;;;;;4.78;3.80;;;24.70;68.10;;;;;;5002737;28;20061;-67